Time;durP1;ratioP1;P1;durP2;ratioP2;P2;SDS_P1;SDS_P2;PMS_P1;PMS_P2;Temp;Humidity;BMP_temperature;BMP_pressure;BME280_temperature;BME280_humidity;BME280_pressure;Samples;Min_cycle;Max_cycle;Signal;HPM_P1;HPM_P2
2024/02/22 00:02:26;;;;;;;;;;;9.50;99.90;;;9.41;84.75;98853.91;5043314;28;19943;-83
2024/02/22 00:04:53;;;;;;;;;;;9.50;99.90;;;9.38;84.79;98853.59;5036815;28;19921;-83
2024/02/22 00:07:20;;;;;;;;;;;9.50;99.90;;;9.28;85.52;98848.94;5036662;28;19943;-83
2024/02/22 00:09:48;;;;;;;;;;;9.40;99.90;;;9.31;85.58;98851.09;5037322;28;19925;-83
2024/02/22 00:12:17;;;;;;;;;;;9.40;99.90;;;9.24;86.13;98848.59;5036728;28;19921;-83
2024/02/22 00:14:44;;;;;;;;;;;9.40;99.90;;;9.20;86.28;98847.47;5037017;28;20377;-83
2024/02/22 00:17:12;;;;;;;;;;;9.30;99.90;;;9.27;86.35;98836.66;5036993;28;19928;-83
2024/02/22 00:19:39;;;;;;;;;;;9.40;99.90;;;9.34;86.03;98828.53;5036286;28;19921;-83
2024/02/22 00:22:06;;;;;;;;;;;9.40;99.90;;;9.17;86.48;98826.66;5037322;28;19933;-83
2024/02/22 00:24:33;;;;;;;;;;;9.40;99.90;;;9.20;87.12;98830.69;5052270;28;19921;-83
2024/02/22 00:27:00;;;;;;;;;;;9.40;99.90;;;9.26;86.96;98824.41;5055374;28;19920;-83
2024/02/22 00:29:28;;;;;;;;;;;9.50;99.90;;;9.32;86.67;98810.16;5056166;28;20015;-83
2024/02/22 00:31:55;;;;;;;;;;;9.40;99.90;;;9.40;86.21;98812.38;5047831;28;19921;-83
2024/02/22 00:34:22;;;;;;;;;;;9.50;99.90;;;9.41;85.98;98808.66;5036567;28;19933;-83
2024/02/22 00:36:49;;;;;;;;;;;9.50;99.90;;;9.41;86.05;98813.19;5036436;28;19921;-82
2024/02/22 00:39:17;;;;;;;;;;;9.50;99.90;;;9.46;85.84;98808.72;5036231;28;19956;-83
2024/02/22 00:41:44;;;;;;;;;;;9.60;99.90;;;9.47;85.54;98806.91;5037999;28;19925;-83
2024/02/22 00:44:11;;;;;;;;;;;9.60;99.90;;;9.52;85.72;98812.28;5036421;28;19920;-83
2024/02/22 00:46:40;;;;;;;;;;;9.60;99.90;;;9.41;85.94;98800.69;5037640;28;20002;-83
2024/02/22 00:49:07;;;;;;;;;;;9.50;99.90;;;9.37;86.27;98799.59;5056683;28;20292;-83
2024/02/22 00:51:34;;;;;;;;;;;9.50;99.90;;;9.41;86.34;98791.91;5055781;28;20075;-83
2024/02/22 00:54:01;;;;;;;;;;;9.50;99.90;;;9.47;86.17;98772.31;5048896;28;19920;-82
2024/02/22 00:56:29;;;;;;;;;;;9.60;99.90;;;9.40;86.25;98777.78;5058809;28;20380;-83
2024/02/22 00:58:56;;;;;;;;;;;9.50;99.90;;;9.40;86.67;98777.78;5060195;28;20380;-83
2024/02/22 01:01:23;;;;;;;;;;;9.50;99.90;;;9.50;86.16;98774.47;5058975;28;20392;-83
2024/02/22 01:03:52;;;;;;;;;;;9.60;99.90;;;9.47;86.12;98777.63;5060735;28;19972;-83
2024/02/22 01:06:20;;;;;;;;;;;9.50;99.90;;;9.50;86.16;98766.47;5054048;28;19927;-83
2024/02/22 01:08:47;;;;;;;;;;;9.60;99.90;;;9.48;86.22;98768.59;5040886;28;19967;-83
2024/02/22 01:11:14;;;;;;;;;;;9.60;99.90;;;9.40;86.62;98761.81;5043013;28;19929;-83
2024/02/22 01:13:41;;;;;;;;;;;9.50;99.90;;;9.52;86.42;98761.72;5059781;28;19920;-83
2024/02/22 01:16:09;;;;;;;;;;;9.60;99.90;;;9.52;86.41;98749.22;5059087;28;19921;-83
2024/02/22 01:18:36;;;;;;;;;;;9.60;99.90;;;9.48;86.61;98753.44;5059666;28;19921;-83
2024/02/22 01:21:04;;;;;;;;;;;9.60;99.90;;;9.47;86.73;98743.03;5042952;28;19960;-83
2024/02/22 01:23:32;;;;;;;;;;;9.60;99.90;;;9.54;86.70;98741.78;5040200;28;20407;-83
2024/02/22 01:25:59;;;;;;;;;;;9.60;99.90;;;9.55;86.54;98739.94;5039803;28;20020;-83
2024/02/22 01:28:26;;;;;;;;;;;9.60;99.90;;;9.60;86.51;98739.19;5039547;28;20008;-83
2024/02/22 01:30:53;;;;;;;;;;;9.60;99.90;;;9.61;86.57;98741.59;5051591;28;19970;-83
2024/02/22 01:33:20;;;;;;;;;;;9.60;99.90;;;9.58;86.79;98730.66;5049193;28;19970;-83
2024/02/22 01:35:47;;;;;;;;;;;9.60;99.90;;;9.55;86.81;98714.13;5059823;28;20433;-83
2024/02/22 01:38:16;;;;;;;;;;;9.60;99.90;;;9.47;87.34;98709.25;5059514;28;20031;-84
2024/02/22 01:40:43;;;;;;;;;;;9.60;99.90;;;9.46;87.70;98714.81;5056955;28;20380;-83
2024/02/22 01:43:10;;;;;;;;;;;9.60;99.90;;;9.51;87.91;98706.88;5042523;28;19921;-83
2024/02/22 01:45:37;;;;;;;;;;;9.60;99.90;;;9.53;87.92;98702.13;5039398;28;19944;-83
2024/02/22 01:48:05;;;;;;;;;;;9.70;99.90;;;9.56;87.89;98696.28;5048522;28;19924;-83
2024/02/22 01:50:32;;;;;;;;;;;9.70;99.90;;;9.52;88.04;98690.69;5059356;28;19920;-83
2024/02/22 01:53:00;;;;;;;;;;;9.70;99.90;;;9.51;88.24;98694.38;5058691;28;19967;-83
2024/02/22 01:55:29;;;;;;;;;;;9.70;99.90;;;9.48;88.51;98688.75;5051693;28;19921;-83
2024/02/22 01:57:56;;;;;;;;;;;9.70;99.90;;;9.53;88.62;98680.84;5037910;28;19928;-83
2024/02/22 02:00:24;;;;;;;;;;;9.70;99.90;;;9.60;88.52;98681.44;5058675;28;19970;-83
2024/02/22 02:02:51;;;;;;;;;;;9.70;99.90;;;9.59;88.52;98671.06;5059251;28;19958;-83
2024/02/22 02:05:18;;;;;;;;;;;9.70;99.90;;;9.65;88.18;98667.38;5053159;28;19943;-83
2024/02/22 02:07:46;;;;;;;;;;;9.70;99.90;;;9.66;88.16;98674.31;5039814;28;20007;-83
2024/02/22 02:10:13;;;;;;;;;;;9.70;99.90;;;9.68;88.22;98669.56;5039459;28;19921;-82
2024/02/22 02:12:41;;;;;;;;;;;9.70;99.90;;;9.70;88.14;98662.91;5055890;28;20403;-83
2024/02/22 02:15:09;;;;;;;;;;;9.70;99.90;;;9.69;88.00;98666.66;5059453;28;19955;-83
2024/02/22 02:17:36;;;;;;;;;;;9.70;99.90;;;9.68;88.15;98673.03;5059868;28;19920;-83
2024/02/22 02:20:05;;;;;;;;;;;9.70;99.90;;;9.67;88.31;98662.63;5041180;28;19921;-83
2024/02/22 02:22:51;;;;;;;;;;;9.80;99.90;;;9.68;88.49;98659.72;5040016;28;20430;-83
2024/02/22 02:25:19;;;;;;;;;;;9.70;99.90;;;9.67;88.56;98655.47;5039533;28;19921;-83
2024/02/22 02:27:47;;;;;;;;;;;9.80;99.90;;;9.68;88.44;98648.28;5047628;28;20380;-83
2024/02/22 02:30:14;;;;;;;;;;;9.80;99.90;;;9.66;88.69;98650.38;5054141;28;19921;-83
2024/02/22 02:32:41;;;;;;;;;;;9.80;99.90;;;9.63;89.13;98646.34;5059136;28;20306;-83
2024/02/22 02:35:09;;;;;;;;;;;9.70;99.90;;;9.62;89.15;98644.75;5055991;28;20011;-82
2024/02/22 02:37:36;;;;;;;;;;;9.70;99.90;;;9.68;88.95;98638.44;5040486;28;19921;-83
2024/02/22 02:40:04;;;;;;;;;;;9.70;99.90;;;9.68;88.83;98635.75;5051109;28;20499;-83
2024/02/22 02:42:32;;;;;;;;;;;9.80;99.90;;;9.62;88.95;98631.44;5044825;28;19928;-83
2024/02/22 02:44:59;;;;;;;;;;;9.70;99.90;;;9.65;89.20;98625.59;5040178;28;19929;-83
2024/02/22 02:47:26;;;;;;;;;;;9.70;99.90;;;9.61;89.30;98621.84;5039576;28;20402;-83
2024/02/22 02:49:53;;;;;;;;;;;9.70;99.90;;;9.62;89.49;98620.00;5038756;28;19920;-83
2024/02/22 02:52:20;;;;;;;;;;;9.70;99.90;;;9.67;89.45;98610.22;5039574;28;19956;-83
2024/02/22 02:54:48;;;;;;;;;;;9.80;99.90;;;9.69;89.39;98607.28;5040028;28;19921;-83
2024/02/22 02:57:15;;;;;;;;;;;9.80;99.90;;;9.65;89.55;98606.97;5040018;28;20385;-83
2024/02/22 02:59:43;;;;;;;;;;;9.80;99.90;;;9.67;89.37;98602.22;5047650;28;19952;-83
2024/02/22 03:02:10;;;;;;;;;;;9.80;99.90;;;9.69;89.26;98600.09;5046157;28;19944;-83
2024/02/22 03:04:37;;;;;;;;;;;9.80;99.90;;;9.68;89.30;98595.84;5040011;28;19921;-83
2024/02/22 03:07:05;;;;;;;;;;;9.80;99.90;;;9.67;89.41;98591.56;5039637;28;20408;-83
2024/02/22 03:09:32;;;;;;;;;;;9.80;99.90;;;9.69;89.53;98578.81;5043255;28;19947;-83
2024/02/22 03:11:59;;;;;;;;;;;9.80;99.90;;;9.76;89.12;98584.75;5039246;28;20016;-83
2024/02/22 03:14:26;;;;;;;;;;;9.80;99.90;;;9.76;89.05;98584.75;5039483;28;20379;-82
2024/02/22 03:16:54;;;;;;;;;;;9.80;99.90;;;9.77;89.19;98585.53;5039331;28;20012;-83
2024/02/22 03:19:21;;;;;;;;;;;9.80;99.90;;;9.76;89.20;98576.75;5039092;28;19982;-83
2024/02/22 03:21:48;;;;;;;;;;;9.90;99.90;;;9.71;89.41;98584.69;5039075;28;20041;-83
2024/02/22 03:24:15;;;;;;;;;;;9.80;99.90;;;9.71;89.49;98576.72;5039424;28;20368;-83
2024/02/22 03:26:45;;;;;;;;;;;9.80;99.90;;;9.72;89.75;98583.63;5038777;28;19927;-83
2024/02/22 03:29:13;;;;;;;;;;;9.80;99.90;;;9.75;89.63;98574.31;5041513;28;19927;-83
2024/02/22 03:31:40;;;;;;;;;;;9.80;99.90;;;9.75;89.77;98577.00;5058818;28;20019;-83
2024/02/22 03:34:09;;;;;;;;;;;9.80;99.90;;;9.77;89.68;98577.56;5058522;28;19921;-83
2024/02/22 03:36:36;;;;;;;;;;;9.80;99.90;;;9.74;89.93;98570.06;5057303;28;20048;-83
2024/02/22 03:39:05;;;;;;;;;;;9.90;99.90;;;9.76;90.09;98570.59;5058073;28;19920;-83
2024/02/22 03:41:32;;;;;;;;;;;9.80;99.90;;;9.63;90.74;98577.16;5056714;28;20054;-84
2024/02/22 03:44:02;;;;;;;;;;;9.80;99.90;;;9.69;90.67;98570.03;5040088;28;19944;-83
2024/02/22 03:46:29;;;;;;;;;;;9.80;99.90;;;9.71;91.09;98574.06;5039037;28;20323;-83
2024/02/22 03:48:56;;;;;;;;;;;9.80;99.90;;;9.77;91.02;98567.72;5037644;28;20323;-83
2024/02/22 03:51:25;;;;;;;;;;;9.90;99.90;;;9.81;90.37;98570.69;5059348;28;19928;-83
2024/02/22 03:53:53;;;;;;;;;;;9.90;99.90;;;9.83;90.49;98573.06;5059284;28;19928;-83
2024/02/22 03:56:20;;;;;;;;;;;9.90;99.90;;;9.74;90.46;98568.19;5058789;28;19921;-83
2024/02/22 03:58:47;;;;;;;;;;;9.90;99.90;;;9.64;91.22;98565.44;5059049;28;20015;-83
2024/02/22 04:01:14;;;;;;;;;;;9.80;99.90;;;9.72;91.37;98561.53;5054728;28;19924;-83
2024/02/22 04:03:41;;;;;;;;;;;9.80;99.90;;;9.70;91.32;98564.44;5057319;28;19921;-83
2024/02/22 04:06:09;;;;;;;;;;;9.90;99.90;;;9.69;91.55;98568.16;5059219;28;19920;-83
2024/02/22 04:08:37;;;;;;;;;;;9.90;99.90;;;9.74;91.76;98556.75;5058960;28;20383;-83
2024/02/22 04:11:04;;;;;;;;;;;9.90;99.90;;;9.77;91.52;98561.59;5041525;28;19929;-83
2024/02/22 04:13:31;;;;;;;;;;;9.90;99.90;;;9.77;91.45;98551.75;5038040;28;19921;-83
2024/02/22 04:15:58;;;;;;;;;;;9.90;99.90;;;9.82;91.33;98550.19;5038759;28;20269;-83
2024/02/22 04:18:25;;;;;;;;;;;9.90;99.90;;;9.80;91.33;98547.75;5038460;28;20385;-83
2024/02/22 04:20:53;;;;;;;;;;;9.90;99.90;;;9.84;91.26;98545.38;5035818;28;19921;-82
2024/02/22 04:23:20;;;;;;;;;;;9.90;99.90;;;9.81;91.44;98538.72;5039625;28;19925;-83
2024/02/22 04:25:48;;;;;;;;;;;9.90;99.90;;;9.79;91.56;98528.31;5037843;28;19921;-83
2024/02/22 04:28:18;;;;;;;;;;;9.90;99.90;;;9.82;91.47;98528.88;5038425;28;19957;-83
2024/02/22 04:30:46;;;;;;;;;;;9.90;99.90;;;9.84;91.39;98527.56;5055312;28;19944;-83
2024/02/22 04:33:13;;;;;;;;;;;9.90;99.90;;;9.82;91.37;98524.34;5062847;28;19948;-83
2024/02/22 04:35:42;;;;;;;;;;;9.90;99.90;;;9.85;91.44;98518.50;5062027;28;19924;-83
2024/02/22 04:38:09;;;;;;;;;;;9.90;99.90;;;9.80;91.71;98521.13;5048418;28;19921;-83
2024/02/22 04:40:37;;;;;;;;;;;9.90;99.90;;;9.87;91.68;98521.72;5041586;28;19963;-83
2024/02/22 04:43:05;;;;;;;;;;;9.90;99.90;;;9.92;91.39;98507.66;5041626;28;19964;-83
2024/02/22 04:45:33;;;;;;;;;;;10.00;99.90;;;9.96;91.20;98509.56;5044001;28;19921;-83
2024/02/22 04:48:01;;;;;;;;;;;10.00;99.90;;;9.98;90.84;98503.97;5061296;28;19948;-83
2024/02/22 04:50:28;;;;;;;;;;;10.00;99.90;;;9.93;90.87;98506.59;5045199;28;19928;-83
2024/02/22 04:52:58;;;;;;;;;;;10.00;99.90;;;9.90;91.05;98509.75;5041547;28;19928;-83
2024/02/22 04:55:25;;;;;;;;;;;10.00;99.90;;;9.89;90.93;98500.97;5041876;28;19944;-83
2024/02/22 04:57:54;;;;;;;;;;;10.30;99.90;;;9.94;90.93;98500.19;5039284;28;19921;-83
2024/02/22 05:00:22;;;;;;;;;;;10.00;99.90;;;9.86;91.34;98492.69;5049289;28;19921;-83
2024/02/22 05:02:49;;;;;;;;;;;10.00;99.90;;;9.86;91.63;98490.00;5046636;28;19957;-83
2024/02/22 05:05:17;;;;;;;;;;;10.00;99.90;;;9.89;91.33;98494.84;5040829;28;19921;-83
2024/02/22 05:07:44;;;;;;;;;;;10.00;99.90;;;9.93;91.51;98494.09;5041284;28;19956;-82
2024/02/22 05:10:11;;;;;;;;;;;10.00;99.90;;;9.93;91.09;98488.75;5039863;28;19952;-82
2024/02/22 05:12:38;;;;;;;;;;;10.00;99.90;;;9.96;91.31;98490.91;5039243;28;19921;-85
2024/02/22 05:15:06;;;;;;;;;;;10.00;99.90;;;9.97;91.03;98497.03;5038071;28;19956;-87
2024/02/22 05:17:35;;;;;;;;;;;10.00;99.90;;;9.96;90.81;98487.47;5036512;28;19925;-86
2024/02/22 05:20:02;;;;;;;;;;;10.00;99.90;;;10.01;90.71;98487.50;5042040;28;20027;-86
2024/02/22 05:22:29;;;;;;;;;;;10.00;99.90;;;9.98;90.49;98478.13;5056350;28;19921;-87
2024/02/22 05:24:56;;;;;;;;;;;10.00;99.90;;;10.00;90.66;98477.88;5056256;28;20015;-87
2024/02/22 05:27:26;;;;;;;;;;;10.10;99.90;;;10.03;90.53;98472.03;5048865;28;19921;-86
2024/02/22 05:29:53;;;;;;;;;;;10.00;99.90;;;10.02;90.41;98471.25;5036818;28;19921;-86
2024/02/22 05:32:23;;;;;;;;;;;10.10;99.90;;;9.97;90.55;98468.56;5036191;28;20363;-86
2024/02/22 05:34:52;;;;;;;;;;;10.00;99.90;;;10.00;90.74;98472.53;5036533;28;19921;-86
2024/02/22 05:37:19;;;;;;;;;;;10.00;99.90;;;10.01;90.73;98460.84;5037087;28;19921;-87
2024/02/22 05:39:46;;;;;;;;;;;10.00;99.90;;;10.03;90.50;98464.84;5038341;28;19928;-85
2024/02/22 05:42:13;;;;;;;;;;;10.00;99.90;;;10.09;90.45;98456.91;5054996;28;20346;-86
2024/02/22 05:44:41;;;;;;;;;;;10.10;99.90;;;10.08;90.29;98461.41;5059964;28;19928;-84
2024/02/22 05:47:08;;;;;;;;;;;10.10;99.90;;;10.07;90.40;98452.63;5050247;28;19928;-84
2024/02/22 05:49:35;;;;;;;;;;;10.10;99.90;;;10.09;90.28;98451.56;5050638;28;20454;-83
2024/02/22 05:52:07;;;;;;;;;;;10.10;99.90;;;10.08;90.27;98437.44;5041148;28;20385;-84
2024/02/22 05:54:34;;;;;;;;;;;10.10;99.90;;;10.09;90.39;98444.38;5051863;28;20011;-84
2024/02/22 05:57:02;;;;;;;;;;;10.10;99.90;;;10.10;90.19;98440.66;5061130;28;19925;-83
2024/02/22 05:59:30;;;;;;;;;;;10.10;99.90;;;10.11;90.19;98436.16;5050431;28;19936;-82
2024/02/22 06:01:57;;;;;;;;;;;10.10;99.90;;;10.03;90.54;98437.44;5055772;28;19959;-83
2024/02/22 06:04:24;;;;;;;;;;;10.10;99.90;;;10.07;90.80;98427.88;5049263;28;19963;-84
2024/02/22 06:06:51;;;;;;;;;;;10.10;99.90;;;10.11;90.64;98425.50;5047430;28;19971;-85
2024/02/22 06:09:19;;;;;;;;;;;10.10;99.90;;;10.12;90.20;98433.22;5056830;28;19920;-83
2024/02/22 06:11:47;;;;;;;;;;;10.10;99.90;;;10.12;90.39;98433.22;5046407;28;19928;-83
2024/02/22 06:14:14;;;;;;;;;;;10.10;99.90;;;10.11;90.34;98436.94;5058678;28;20049;-83
2024/02/22 06:16:41;;;;;;;;;;;10.10;99.90;;;10.06;90.69;98428.94;5058700;28;19931;-83
2024/02/22 06:19:08;;;;;;;;;;;10.10;99.90;;;10.07;90.75;98435.84;5043355;28;19920;-82
2024/02/22 06:21:36;;;;;;;;;;;10.10;99.90;;;10.04;90.65;98431.81;5043175;28;19921;-83
2024/02/22 06:24:03;;;;;;;;;;;10.10;99.90;;;10.03;90.84;98430.22;5038889;28;19921;-83
2024/02/22 06:26:34;;;;;;;;;;;10.10;99.90;;;10.04;90.95;98421.19;5039737;28;19925;-83
2024/02/22 06:29:01;;;;;;;;;;;10.10;99.90;;;10.03;90.93;98413.47;5039757;28;19921;-86
2024/02/22 06:31:28;;;;;;;;;;;10.10;99.90;;;10.08;90.74;98410.81;5058056;28;20415;-83
2024/02/22 06:33:55;;;;;;;;;;;10.10;99.90;;;10.09;90.47;98399.09;5043125;28;19925;-83
2024/02/22 06:36:22;;;;;;;;;;;10.10;99.90;;;10.13;90.35;98396.72;5039769;28;19921;-83
2024/02/22 06:38:49;;;;;;;;;;;10.10;99.90;;;10.14;89.89;98396.47;5039239;28;19921;-83
2024/02/22 06:41:18;;;;;;;;;;;10.10;99.90;;;10.17;89.59;98397.81;5048913;28;19963;-83
2024/02/22 06:43:46;;;;;;;;;;;10.20;99.90;;;10.15;89.39;98391.94;5058153;28;19920;-83
2024/02/22 06:46:16;;;;;;;;;;;10.10;99.90;;;10.09;89.61;98383.13;5058877;28;20323;-83
2024/02/22 06:48:44;;;;;;;;;;;10.10;99.90;;;10.03;90.14;98381.50;5058526;28;19927;-83
2024/02/22 06:51:12;;;;;;;;;;;10.10;99.90;;;10.05;90.37;98374.03;5058704;28;19924;-83
2024/02/22 06:53:39;;;;;;;;;;;10.10;99.90;;;10.06;90.38;98370.34;5059004;28;19920;-83
2024/02/22 06:56:07;;;;;;;;;;;10.20;99.90;;;10.01;90.27;98367.66;5059461;28;20301;-83
2024/02/22 06:58:34;;;;;;;;;;;10.10;99.90;;;10.05;90.37;98368.72;5057184;28;19920;-83
2024/02/22 07:01:03;;;;;;;;;;;10.10;99.90;;;10.10;89.95;98371.41;5057935;28;20454;-83
2024/02/22 07:03:30;;;;;;;;;;;10.10;99.90;;;10.13;89.82;98364.75;5047104;28;19944;-83
2024/02/22 07:05:57;;;;;;;;;;;10.10;99.90;;;10.18;89.61;98351.47;5038219;28;19928;-83
2024/02/22 07:08:25;;;;;;;;;;;10.20;99.90;;;10.11;89.49;98348.25;5038124;28;20040;-83
2024/02/22 07:10:52;;;;;;;;;;;10.10;99.90;;;10.10;89.66;98347.44;5038291;28;19981;-83
2024/02/22 07:13:19;;;;;;;;;;;10.10;99.90;;;10.11;89.86;98346.38;5038788;28;19921;-83
2024/02/22 07:15:46;;;;;;;;;;;10.20;99.90;;;10.17;89.77;98342.69;5037893;28;19953;-83
2024/02/22 07:18:15;;;;;;;;;;;10.20;99.90;;;10.15;89.92;98347.47;5037439;28;19921;-83
2024/02/22 07:20:42;;;;;;;;;;;10.20;99.90;;;10.21;89.64;98348.28;5038055;28;19925;-82
2024/02/22 07:23:10;;;;;;;;;;;10.20;99.90;;;10.25;89.71;98350.22;5038097;28;19920;-83
2024/02/22 07:25:37;;;;;;;;;;;10.30;99.90;;;10.30;89.45;98334.25;5036752;28;19921;-83
2024/02/22 07:28:10;;;;;;;;;;;10.30;99.90;;;10.29;89.21;98345.13;5037977;28;19921;-83
2024/02/22 07:30:37;;;;;;;;;;;10.30;99.90;;;10.18;89.50;98336.28;5038578;28;20467;-83
2024/02/22 07:33:05;;;;;;;;;;;10.30;99.90;;;10.18;89.88;98341.59;5037810;28;19921;-83
2024/02/22 07:35:33;;;;;;;;;;;10.30;99.90;;;10.23;89.73;98330.97;5038600;28;19921;-83
2024/02/22 07:38:00;;;;;;;;;;;10.30;99.90;;;10.21;90.01;98330.44;5036647;28;20396;-83
2024/02/22 07:40:28;;;;;;;;;;;10.40;99.90;;;10.25;90.07;98331.56;5036736;28;19921;-83
2024/02/22 07:42:55;;;;;;;;;;;10.60;99.90;;;10.35;89.96;98324.66;5036689;28;19925;-83
2024/02/22 07:45:22;;;;;;;;;;;10.40;99.90;;;10.40;89.89;98322.00;5036426;28;19925;-83
2024/02/22 07:47:50;;;;;;;;;;;10.50;99.90;;;10.40;89.31;98320.16;5037117;28;19921;-83
2024/02/22 07:50:17;;;;;;;;;;;10.50;99.90;;;10.41;89.13;98321.75;5036476;28;19924;-83
2024/02/22 07:52:45;;;;;;;;;;;10.50;99.90;;;10.42;88.97;98315.34;5037099;28;19920;-83
2024/02/22 07:55:13;;;;;;;;;;;10.50;99.90;;;10.44;89.01;98310.56;5035999;28;19921;-83
2024/02/22 07:57:40;;;;;;;;;;;10.50;99.90;;;10.48;88.83;98308.94;5036815;28;19921;-83
2024/02/22 08:00:08;;;;;;;;;;;10.50;99.90;;;10.50;88.80;98293.50;5049819;28;19921;-83
2024/02/22 08:02:37;;;;;;;;;;;10.40;99.90;;;10.53;89.07;98278.84;5056240;28;20343;-83
2024/02/22 08:05:05;;;;;;;;;;;10.50;99.90;;;10.54;88.56;98281.25;5059884;28;19921;-83
2024/02/22 08:07:33;;;;;;;;;;;10.50;99.90;;;10.53;88.57;98263.66;5062572;28;20381;-83
2024/02/22 08:10:02;;;;;;;;;;;10.50;99.90;;;10.58;88.59;98260.19;5048963;28;19943;-83
2024/02/22 08:12:29;;;;;;;;;;;10.60;99.90;;;10.59;88.58;98272.47;5041421;28;19921;-83
2024/02/22 08:14:57;;;;;;;;;;;10.60;99.90;;;10.63;88.51;98278.06;5041152;28;19927;-83
2024/02/22 08:17:24;;;;;;;;;;;10.60;99.90;;;10.65;88.61;98270.59;5039641;28;19920;-83
2024/02/22 08:19:51;;;;;;;;;;;10.60;99.90;;;10.64;88.18;98264.47;5041459;28;19925;-83
2024/02/22 08:22:18;;;;;;;;;;;10.60;99.90;;;10.64;88.10;98259.16;5040813;28;19921;-83
2024/02/22 08:24:47;;;;;;;;;;;10.60;99.90;;;10.62;87.77;98258.59;5041118;28;19925;-83
2024/02/22 08:27:16;;;;;;;;;;;10.60;99.90;;;10.65;87.75;98247.41;5043175;28;19925;-83
2024/02/22 08:29:48;;;;;;;;;;;10.60;99.90;;;10.67;87.84;98249.81;5061289;28;19921;-83
2024/02/22 08:32:15;;;;;;;;;;;10.60;99.90;;;10.64;87.67;98245.81;5061236;28;19921;-83
2024/02/22 08:34:42;;;;;;;;;;;10.60;99.90;;;10.59;87.42;98237.81;5049801;28;19925;-83
2024/02/22 08:37:10;;;;;;;;;;;10.60;99.90;;;10.45;87.23;98228.75;5042691;28;19967;-83
2024/02/22 08:39:37;;;;;;;;;;;10.60;99.90;;;10.47;87.40;98227.41;5048727;28;19921;-83
2024/02/22 08:42:05;;;;;;;;;;;10.60;99.90;;;10.54;87.77;98221.81;5059277;28;20407;-83
2024/02/22 08:44:33;;;;;;;;;;;10.60;99.90;;;10.51;87.89;98206.38;5060197;28;19928;-83
2024/02/22 08:47:03;;;;;;;;;;;10.60;99.90;;;10.52;87.95;98189.31;5055049;28;19996;-83
2024/02/22 08:49:32;;;;;;;;;;;10.60;99.90;;;10.57;87.83;98191.97;5040549;28;19963;-83
2024/02/22 08:52:03;;;;;;;;;;;10.60;99.90;;;10.61;87.79;98186.91;5041273;28;19948;-83
2024/02/22 08:54:30;;;;;;;;;;;10.70;99.90;;;10.53;87.43;98182.91;5041084;28;19937;-83
2024/02/22 08:56:57;;;;;;;;;;;10.70;99.90;;;10.61;87.78;98182.38;5041466;28;20024;-83
2024/02/22 08:59:24;;;;;;;;;;;10.70;99.90;;;10.65;88.26;98172.78;5040860;28;19928;-83
2024/02/22 09:01:53;;;;;;;;;;;10.70;99.90;;;10.67;88.21;98161.84;5059158;28;19921;-83
2024/02/22 09:04:26;;;;;;;;;;;10.80;99.90;;;10.64;88.10;98154.38;5060798;28;19971;-83
2024/02/22 09:06:54;;;;;;;;;;;10.80;99.90;;;10.64;87.86;98152.53;5060213;28;19921;-84
2024/02/22 09:09:21;;;;;;;;;;;10.80;99.90;;;10.63;87.61;98140.25;5059766;28;20019;-83
2024/02/22 09:11:48;;;;;;;;;;;10.80;99.90;;;10.66;87.88;98134.38;5059923;28;19974;-83
2024/02/22 09:14:16;;;;;;;;;;;10.80;99.90;;;10.66;87.89;98131.72;5060544;28;19920;-83
2024/02/22 09:16:45;;;;;;;;;;;10.80;99.90;;;10.66;87.56;98129.06;5060899;28;19925;-83
2024/02/22 09:19:13;;;;;;;;;;;10.80;99.90;;;10.64;87.35;98127.72;5059426;28;19927;-83
2024/02/22 09:21:41;;;;;;;;;;;10.80;99.90;;;10.71;87.26;98126.38;5060323;28;19921;-83
2024/02/22 09:24:09;;;;;;;;;;;10.80;99.90;;;10.71;87.56;98121.03;5059681;28;19921;-83
2024/02/22 09:26:36;;;;;;;;;;;10.90;99.90;;;10.75;87.62;98106.09;5060208;28;19921;-83
2024/02/22 09:29:03;;;;;;;;;;;10.90;99.90;;;10.78;87.55;98105.59;5058036;28;20334;-83
2024/02/22 09:31:32;;;;;;;;;;;10.90;99.90;;;10.70;86.93;98097.34;5056826;28;19920;-83
2024/02/22 09:34:00;;;;;;;;;;;10.90;99.90;;;10.69;87.02;98080.53;5060731;28;19970;-83
2024/02/22 09:36:29;;;;;;;;;;;10.90;99.90;;;10.71;86.77;98088.25;5061257;28;19952;-83
2024/02/22 09:38:56;;;;;;;;;;;10.90;99.90;;;10.68;87.03;98078.13;5062291;28;19970;-84
2024/02/22 09:41:25;;;;;;;;;;;10.90;99.90;;;10.62;87.03;98074.69;5061024;28;20303;-83
2024/02/22 09:43:58;;;;;;;;;;;10.80;99.90;;;10.73;87.13;98075.44;5061798;28;20384;-84
2024/02/22 09:46:26;;;;;;;;;;;10.90;99.90;;;10.70;87.19;98055.47;5059239;28;19967;-83
2024/02/22 09:48:53;;;;;;;;;;;10.90;99.90;;;10.66;86.59;98051.75;5064565;28;20384;-84
2024/02/22 09:51:23;;;;;;;;;;;10.90;99.90;;;10.71;87.33;98035.75;5062231;28;20024;-84
2024/02/22 09:53:52;;;;;;;;;;;10.90;99.90;;;10.79;87.33;98037.06;5060928;28;20300;-84
2024/02/22 09:56:19;;;;;;;;;;;10.90;99.90;;;10.83;87.48;98033.56;5060875;28;19920;-84
2024/02/22 09:58:48;;;;;;;;;;;11.00;99.90;;;10.83;87.17;98033.56;5061932;28;19920;-83
2024/02/22 10:01:15;;;;;;;;;;;10.90;99.90;;;10.79;86.90;98018.41;5060260;28;19920;-83
2024/02/22 10:03:42;;;;;;;;;;;11.00;99.90;;;10.83;86.81;98020.25;5060752;28;19927;-84
2024/02/22 10:06:16;;;;;;;;;;;11.00;99.90;;;10.86;86.93;98012.75;5059704;28;20430;-84
2024/02/22 10:08:44;;;;;;;;;;;11.00;99.90;;;10.82;86.37;98002.63;5062859;28;20403;-83
2024/02/22 10:11:12;;;;;;;;;;;11.00;99.90;;;10.81;86.63;98008.25;5067203;28;19974;-84
2024/02/22 10:13:41;;;;;;;;;;;11.00;99.90;;;10.87;86.75;98001.00;5066340;28;20415;-84
2024/02/22 10:16:12;;;;;;;;;;;11.00;99.90;;;10.90;86.72;97993.28;5062067;28;20015;-83
2024/02/22 10:18:39;;;;;;;;;;;11.00;99.90;;;10.89;86.88;97973.03;5061479;28;20348;-84
2024/02/22 10:21:15;;;;;;;;;;;11.00;99.90;;;10.95;86.66;97969.25;5060008;28;19921;-83
2024/02/22 10:23:42;;;;;;;;;;;11.10;99.90;;;10.95;86.30;97971.13;5058022;28;20289;-83
2024/02/22 10:26:09;;;;;;;;;;;11.10;99.90;;;11.00;86.38;97969.22;5059431;28;19961;-83
2024/02/22 10:28:39;;;;;;;;;;;11.10;99.90;;;11.03;86.11;97952.69;5058444;28;19971;-83
2024/02/22 10:31:07;;;;;;;;;;;11.20;99.90;;;11.04;86.20;97938.25;5057497;28;19966;-84
2024/02/22 10:33:34;;;;;;;;;;;11.20;99.90;;;11.07;86.36;97932.34;5057547;28;19967;-84
2024/02/22 10:36:02;;;;;;;;;;;11.20;99.90;;;11.11;86.18;97916.59;5056656;28;19921;-84
2024/02/22 10:38:30;;;;;;;;;;;11.20;99.90;;;11.16;86.11;97900.56;5057571;28;20372;-84
2024/02/22 10:40:58;;;;;;;;;;;11.20;99.90;;;11.18;86.36;97897.63;5057510;28;19921;-84
2024/02/22 10:43:25;;;;;;;;;;;11.30;99.90;;;11.19;85.23;97889.34;5056584;28;19920;-84
2024/02/22 10:45:54;;;;;;;;;;;11.30;99.90;;;11.22;85.89;97894.09;5056814;28;19971;-84
2024/02/22 10:48:22;;;;;;;;;;;11.40;99.90;;;11.24;86.10;97888.50;5056999;28;20407;-85
2024/02/22 10:50:49;;;;;;;;;;;11.40;99.90;;;11.27;85.98;97870.06;5057669;28;20343;-84
2024/02/22 10:53:17;;;;;;;;;;;11.40;99.90;;;11.30;86.27;97871.38;5056233;28;19921;-84
2024/02/22 10:55:49;;;;;;;;;;;11.40;99.90;;;11.35;86.22;97863.31;5057031;28;19924;-84
2024/02/22 10:58:18;;;;;;;;;;;11.50;99.90;;;11.40;85.91;97862.50;5058697;28;19959;-84
2024/02/22 11:00:45;;;;;;;;;;;11.60;99.90;;;11.44;86.12;97863.53;5063178;28;19928;-84
2024/02/22 11:03:15;;;;;;;;;;;11.60;99.90;;;11.47;85.74;97852.28;5063616;28;19920;-84
2024/02/22 11:05:46;;;;;;;;;;;11.60;99.90;;;11.53;85.61;97849.28;5063081;28;19921;-84
2024/02/22 11:08:20;;;;;;;;;;;11.80;99.90;;;11.51;85.22;97837.28;5062308;28;19943;-83
2024/02/22 11:10:47;;;;;;;;;;;11.80;99.90;;;11.54;85.28;97834.06;5060517;28;19921;-84
2024/02/22 11:13:17;;;;;;;;;;;11.80;99.90;;;11.57;84.85;97828.19;5063165;28;19968;-84
2024/02/22 11:15:44;;;;;;;;;;;11.80;99.90;;;11.63;85.15;97812.91;5064082;28;19921;-84
2024/02/22 11:18:11;;;;;;;;;;;11.90;99.90;;;11.64;85.70;97807.25;5064868;28;19927;-84
2024/02/22 11:20:41;;;;;;;;;;;11.90;99.90;;;11.66;85.00;97815.78;5063610;28;20008;-84
2024/02/22 11:23:15;;;;;;;;;;;11.90;99.90;;;11.68;85.09;97802.94;5060374;28;19928;-84
2024/02/22 11:25:42;;;;;;;;;;;12.00;99.90;;;11.70;85.01;97790.09;5058277;28;20364;-84
2024/02/22 11:28:09;;;;;;;;;;;12.00;99.90;;;11.72;85.03;97781.81;5060452;28;19981;-84